sensor_id;sensor_type;location;lat;lon;timestamp;temperature;humidity
1429;DHT22;708;51.442;7.016;2023-05-24T00:01:53;10.20;99.90
1429;DHT22;708;51.442;7.016;2023-05-24T00:04:21;10.20;99.90
1429;DHT22;708;51.442;7.016;2023-05-24T00:06:49;10.10;99.90
1429;DHT22;708;51.442;7.016;2023-05-24T00:09:16;10.10;1.00
1429;DHT22;708;51.442;7.016;2023-05-24T00:11:44;10.10;99.90
1429;DHT22;708;51.442;7.016;2023-05-24T00:14:11;10.10;99.90
1429;DHT22;708;51.442;7.016;2023-05-24T00:16:38;10.10;99.90
1429;DHT22;708;51.442;7.016;2023-05-24T00:19:04;10.00;1.00
1429;DHT22;708;51.442;7.016;2023-05-24T00:21:31;10.10;1.00
1429;DHT22;708;51.442;7.016;2023-05-24T00:24:01;10.00;1.00
1429;DHT22;708;51.442;7.016;2023-05-24T00:26:27;10.00;1.00
1429;DHT22;708;51.442;7.016;2023-05-24T00:28:55;10.00;99.90
1429;DHT22;708;51.442;7.016;2023-05-24T00:31:22;10.00;99.90
1429;DHT22;708;51.442;7.016;2023-05-24T00:33:49;10.00;99.90
1429;DHT22;708;51.442;7.016;2023-05-24T00:36:16;9.90;1.00
1429;DHT22;708;51.442;7.016;2023-05-24T00:38:43;9.90;69.60
1429;DHT22;708;51.442;7.016;2023-05-24T00:41:09;9.90;99.90
1429;DHT22;708;51.442;7.016;2023-05-24T00:43:36;9.90;99.90
1429;DHT22;708;51.442;7.016;2023-05-24T00:46:15;9.90;1.00
1429;DHT22;708;51.442;7.016;2023-05-24T00:48:44;9.90;1.00
1429;DHT22;708;51.442;7.016;2023-05-24T00:51:11;9.90;1.00
1429;DHT22;708;51.442;7.016;2023-05-24T00:53:39;9.80;1.00
1429;DHT22;708;51.442;7.016;2023-05-24T00:56:07;9.80;99.90
1429;DHT22;708;51.442;7.016;2023-05-24T00:58:34;9.80;99.90
1429;DHT22;708;51.442;7.016;2023-05-24T01:01:02;9.80;99.90
1429;DHT22;708;51.442;7.016;2023-05-24T01:03:30;9.70;1.00
1429;DHT22;708;51.442;7.016;2023-05-24T01:05:59;9.70;1.00
1429;DHT22;708;51.442;7.016;2023-05-24T01:08:44;9.70;1.00
1429;DHT22;708;51.442;7.016;2023-05-24T01:11:16;9.70;99.90
1429;DHT22;708;51.442;7.016;2023-05-24T01:13:51;9.70;99.90
1429;DHT22;708;51.442;7.016;2023-05-24T01:16:24;9.70;99.90
1429;DHT22;708;51.442;7.016;2023-05-24T01:18:55;9.70;99.90
1429;DHT22;708;51.442;7.016;2023-05-24T01:21:37;9.70;99.90
1429;DHT22;708;51.442;7.016;2023-05-24T01:24:17;9.60;99.90
1429;DHT22;708;51.442;7.016;2023-05-24T01:27:04;9.60;1.00
1429;DHT22;708;51.442;7.016;2023-05-24T01:29:33;9.60;1.00
1429;DHT22;708;51.442;7.016;2023-05-24T01:32:00;9.60;1.00
1429;DHT22;708;51.442;7.016;2023-05-24T01:34:27;9.60;1.00
1429;DHT22;708;51.442;7.016;2023-05-24T01:36:54;9.60;1.00
1429;DHT22;708;51.442;7.016;2023-05-24T01:39:23;9.60;1.00
1429;DHT22;708;51.442;7.016;2023-05-24T01:42:02;9.60;47.10
1429;DHT22;708;51.442;7.016;2023-05-24T01:44:35;9.50;93.20
1429;DHT22;708;51.442;7.016;2023-05-24T01:47:10;9.50;99.90
1429;DHT22;708;51.442;7.016;2023-05-24T01:49:49;9.50;99.90
1429;DHT22;708;51.442;7.016;2023-05-24T01:52:18;9.50;99.90
1429;DHT22;708;51.442;7.016;2023-05-24T01:54:51;9.40;99.90
1429;DHT22;708;51.442;7.016;2023-05-24T01:57:19;9.40;99.90
1429;DHT22;708;51.442;7.016;2023-05-24T01:59:49;9.40;99.90
1429;DHT22;708;51.442;7.016;2023-05-24T02:02:16;9.30;99.90
1429;DHT22;708;51.442;7.016;2023-05-24T02:04:43;9.30;99.90
1429;DHT22;708;51.442;7.016;2023-05-24T02:07:10;9.30;99.90
1429;DHT22;708;51.442;7.016;2023-05-24T02:09:37;9.30;99.90
1429;DHT22;708;51.442;7.016;2023-05-24T02:12:05;9.30;99.90
1429;DHT22;708;51.442;7.016;2023-05-24T02:14:33;9.20;99.90
1429;DHT22;708;51.442;7.016;2023-05-24T02:17:02;9.20;99.90
1429;DHT22;708;51.442;7.016;2023-05-24T02:19:29;9.20;99.90
1429;DHT22;708;51.442;7.016;2023-05-24T02:21:55;9.20;99.90
1429;DHT22;708;51.442;7.016;2023-05-24T02:24:22;9.10;99.90
1429;DHT22;708;51.442;7.016;2023-05-24T02:26:49;9.10;99.90
1429;DHT22;708;51.442;7.016;2023-05-24T02:29:16;9.10;99.90
1429;DHT22;708;51.442;7.016;2023-05-24T02:31:44;9.10;99.90
1429;DHT22;708;51.442;7.016;2023-05-24T02:34:11;9.10;1.00
1429;DHT22;708;51.442;7.016;2023-05-24T02:36:38;9.00;1.00
1429;DHT22;708;51.442;7.016;2023-05-24T02:39:05;9.00;1.00
1429;DHT22;708;51.442;7.016;2023-05-24T02:41:31;8.90;1.00
1429;DHT22;708;51.442;7.016;2023-05-24T02:43:58;8.90;1.00
1429;DHT22;708;51.442;7.016;2023-05-24T02:46:25;8.90;1.00
1429;DHT22;708;51.442;7.016;2023-05-24T02:48:53;8.90;1.00
1429;DHT22;708;51.442;7.016;2023-05-24T02:51:20;8.90;1.00
1429;DHT22;708;51.442;7.016;2023-05-24T02:53:46;8.90;1.00
1429;DHT22;708;51.442;7.016;2023-05-24T02:56:13;8.90;1.00
1429;DHT22;708;51.442;7.016;2023-05-24T02:58:41;8.90;1.00
1429;DHT22;708;51.442;7.016;2023-05-24T03:01:09;9.00;1.00
1429;DHT22;708;51.442;7.016;2023-05-24T03:03:37;8.90;1.00
1429;DHT22;708;51.442;7.016;2023-05-24T03:06:05;8.90;1.00
1429;DHT22;708;51.442;7.016;2023-05-24T03:08:32;8.90;1.00
1429;DHT22;708;51.442;7.016;2023-05-24T03:10:59;8.90;1.00
1429;DHT22;708;51.442;7.016;2023-05-24T03:13:26;8.90;1.00
1429;DHT22;708;51.442;7.016;2023-05-24T03:15:52;8.90;1.00
1429;DHT22;708;51.442;7.016;2023-05-24T03:18:19;8.90;1.00
1429;DHT22;708;51.442;7.016;2023-05-24T03:20:46;8.90;1.00
1429;DHT22;708;51.442;7.016;2023-05-24T03:23:14;9.00;1.00
1429;DHT22;708;51.442;7.016;2023-05-24T03:25:41;9.00;1.00
1429;DHT22;708;51.442;7.016;2023-05-24T03:28:08;9.00;1.00
1429;DHT22;708;51.442;7.016;2023-05-24T03:30:34;9.00;1.00
1429;DHT22;708;51.442;7.016;2023-05-24T03:33:01;9.00;1.00
1429;DHT22;708;51.442;7.016;2023-05-24T03:35:28;9.00;1.00
1429;DHT22;708;51.442;7.016;2023-05-24T03:37:55;9.00;1.00
1429;DHT22;708;51.442;7.016;2023-05-24T03:40:23;9.00;1.00
1429;DHT22;708;51.442;7.016;2023-05-24T03:42:53;9.00;1.00
1429;DHT22;708;51.442;7.016;2023-05-24T03:45:19;9.10;1.00
1429;DHT22;708;51.442;7.016;2023-05-24T03:47:46;9.10;1.00
1429;DHT22;708;51.442;7.016;2023-05-24T03:50:13;9.10;1.00
1429;DHT22;708;51.442;7.016;2023-05-24T03:52:41;9.10;1.00
1429;DHT22;708;51.442;7.016;2023-05-24T03:55:08;9.20;1.00
1429;DHT22;708;51.442;7.016;2023-05-24T03:57:37;9.20;1.00
1429;DHT22;708;51.442;7.016;2023-05-24T04:00:04;9.30;1.00
1429;DHT22;708;51.442;7.016;2023-05-24T04:02:32;9.40;1.00
1429;DHT22;708;51.442;7.016;2023-05-24T04:04:58;9.40;1.00
1429;DHT22;708;51.442;7.016;2023-05-24T04:07:25;9.50;1.00
1429;DHT22;708;51.442;7.016;2023-05-24T04:09:52;9.60;1.00
1429;DHT22;708;51.442;7.016;2023-05-24T04:12:19;9.60;1.00
1429;DHT22;708;51.442;7.016;2023-05-24T04:14:47;9.70;1.00
1429;DHT22;708;51.442;7.016;2023-05-24T04:17:14;9.80;1.00
1429;DHT22;708;51.442;7.016;2023-05-24T04:19:41;9.80;1.00
1429;DHT22;708;51.442;7.016;2023-05-24T04:22:08;10.00;1.00
1429;DHT22;708;51.442;7.016;2023-05-24T04:24:35;10.10;1.00
1429;DHT22;708;51.442;7.016;2023-05-24T04:27:01;10.20;1.00
1429;DHT22;708;51.442;7.016;2023-05-24T04:29:28;10.30;1.00
1429;DHT22;708;51.442;7.016;2023-05-24T04:31:59;10.40;1.00
1429;DHT22;708;51.442;7.016;2023-05-24T04:34:27;10.60;1.00
1429;DHT22;708;51.442;7.016;2023-05-24T04:36:58;10.70;1.00
1429;DHT22;708;51.442;7.016;2023-05-24T04:39:25;10.90;99.90
1429;DHT22;708;51.442;7.016;2023-05-24T04:41:51;11.40;99.90
1429;DHT22;708;51.442;7.016;2023-05-24T04:44:19;12.10;99.90
1429;DHT22;708;51.442;7.016;2023-05-24T04:46:46;13.00;1.00
1429;DHT22;708;51.442;7.016;2023-05-24T04:49:14;13.90;99.90
1429;DHT22;708;51.442;7.016;2023-05-24T04:51:41;14.70;1.00
1429;DHT22;708;51.442;7.016;2023-05-24T04:54:08;14.90;1.00
1429;DHT22;708;51.442;7.016;2023-05-24T04:56:35;14.80;99.90
1429;DHT22;708;51.442;7.016;2023-05-24T04:59:02;14.60;99.90
1429;DHT22;708;51.442;7.016;2023-05-24T05:01:30;14.30;99.90
1429;DHT22;708;51.442;7.016;2023-05-24T05:03:57;14.10;1.00
1429;DHT22;708;51.442;7.016;2023-05-24T05:06:25;14.00;1.00
1429;DHT22;708;51.442;7.016;2023-05-24T05:08:52;13.80;99.90
1429;DHT22;708;51.442;7.016;2023-05-24T05:11:19;13.80;99.90
1429;DHT22;708;51.442;7.016;2023-05-24T05:13:46;13.90;99.90
1429;DHT22;708;51.442;7.016;2023-05-24T05:16:13;14.20;99.90
1429;DHT22;708;51.442;7.016;2023-05-24T05:18:40;14.40;1.00
1429;DHT22;708;51.442;7.016;2023-05-24T05:21:06;14.70;1.00
1429;DHT22;708;51.442;7.016;2023-05-24T05:23:34;15.20;99.90
1429;DHT22;708;51.442;7.016;2023-05-24T05:26:01;15.70;1.00
1429;DHT22;708;51.442;7.016;2023-05-24T05:28:28;16.40;1.00
1429;DHT22;708;51.442;7.016;2023-05-24T05:30:55;17.00;94.90
1429;DHT22;708;51.442;7.016;2023-05-24T05:33:23;17.70;99.90
1429;DHT22;708;51.442;7.016;2023-05-24T05:35:50;18.40;99.90
1429;DHT22;708;51.442;7.016;2023-05-24T05:38:16;19.30;99.90
1429;DHT22;708;51.442;7.016;2023-05-24T05:40:44;20.50;99.90
1429;DHT22;708;51.442;7.016;2023-05-24T05:43:11;21.50;99.30
1429;DHT22;708;51.442;7.016;2023-05-24T05:45:38;22.50;96.80
1429;DHT22;708;51.442;7.016;2023-05-24T05:48:05;23.60;93.80
1429;DHT22;708;51.442;7.016;2023-05-24T05:50:32;23.50;91.80
1429;DHT22;708;51.442;7.016;2023-05-24T05:52:58;23.90;91.00
1429;DHT22;708;51.442;7.016;2023-05-24T05:55:25;24.50;90.10
1429;DHT22;708;51.442;7.016;2023-05-24T05:57:53;25.40;87.70
1429;DHT22;708;51.442;7.016;2023-05-24T06:00:21;26.40;84.20
1429;DHT22;708;51.442;7.016;2023-05-24T06:02:49;27.10;80.10
1429;DHT22;708;51.442;7.016;2023-05-24T06:05:17;27.60;76.30
1429;DHT22;708;51.442;7.016;2023-05-24T06:07:44;26.80;74.00
1429;DHT22;708;51.442;7.016;2023-05-24T06:10:11;25.90;75.10
1429;DHT22;708;51.442;7.016;2023-05-24T06:12:38;25.50;75.60
1429;DHT22;708;51.442;7.016;2023-05-24T06:15:08;24.60;77.30
1429;DHT22;708;51.442;7.016;2023-05-24T06:17:36;23.90;79.30
1429;DHT22;708;51.442;7.016;2023-05-24T06:20:03;23.00;81.40
1429;DHT22;708;51.442;7.016;2023-05-24T06:22:33;22.20;83.70
1429;DHT22;708;51.442;7.016;2023-05-24T06:25:02;21.40;86.50
1429;DHT22;708;51.442;7.016;2023-05-24T06:27:29;20.60;89.60
1429;DHT22;708;51.442;7.016;2023-05-24T06:29:56;19.90;91.30
1429;DHT22;708;51.442;7.016;2023-05-24T06:32:24;19.30;92.70
1429;DHT22;708;51.442;7.016;2023-05-24T06:34:54;18.60;94.30
1429;DHT22;708;51.442;7.016;2023-05-24T06:37:21;18.00;96.40
1429;DHT22;708;51.442;7.016;2023-05-24T06:39:49;17.80;98.10
1429;DHT22;708;51.442;7.016;2023-05-24T06:42:16;17.70;99.40
1429;DHT22;708;51.442;7.016;2023-05-24T06:44:43;17.80;99.90
1429;DHT22;708;51.442;7.016;2023-05-24T06:47:09;17.80;99.90
1429;DHT22;708;51.442;7.016;2023-05-24T06:49:38;18.00;99.90
1429;DHT22;708;51.442;7.016;2023-05-24T06:52:04;18.20;99.90
1429;DHT22;708;51.442;7.016;2023-05-24T06:54:32;18.00;99.90
1429;DHT22;708;51.442;7.016;2023-05-24T06:56:59;17.90;99.90
1429;DHT22;708;51.442;7.016;2023-05-24T06:59:26;17.80;99.90
1429;DHT22;708;51.442;7.016;2023-05-24T07:01:52;18.00;99.90
1429;DHT22;708;51.442;7.016;2023-05-24T07:04:22;18.90;99.40
1429;DHT22;708;51.442;7.016;2023-05-24T07:06:51;20.90;96.80
1429;DHT22;708;51.442;7.016;2023-05-24T07:09:18;22.30;93.90
1429;DHT22;708;51.442;7.016;2023-05-24T07:11:45;23.90;90.60
1429;DHT22;708;51.442;7.016;2023-05-24T07:14:12;25.30;86.20
1429;DHT22;708;51.442;7.016;2023-05-24T07:16:38;25.50;80.50
1429;DHT22;708;51.442;7.016;2023-05-24T07:19:05;24.90;78.50
1429;DHT22;708;51.442;7.016;2023-05-24T07:21:32;24.00;79.30
1429;DHT22;708;51.442;7.016;2023-05-24T07:24:00;23.70;81.00
1429;DHT22;708;51.442;7.016;2023-05-24T07:26:28;24.40;80.60
1429;DHT22;708;51.442;7.016;2023-05-24T07:28:55;26.10;77.40
1429;DHT22;708;51.442;7.016;2023-05-24T07:31:21;26.70;72.80
1429;DHT22;708;51.442;7.016;2023-05-24T07:33:48;26.70;70.60
1429;DHT22;708;51.442;7.016;2023-05-24T07:36:15;26.30;71.30
1429;DHT22;708;51.442;7.016;2023-05-24T07:38:42;25.50;71.50
1429;DHT22;708;51.442;7.016;2023-05-24T07:41:12;24.80;72.80
1429;DHT22;708;51.442;7.016;2023-05-24T07:43:39;24.30;74.40
1429;DHT22;708;51.442;7.016;2023-05-24T07:46:06;24.30;73.70
1429;DHT22;708;51.442;7.016;2023-05-24T07:48:34;24.90;72.50
1429;DHT22;708;51.442;7.016;2023-05-24T07:51:01;24.80;72.00
1429;DHT22;708;51.442;7.016;2023-05-24T07:53:28;26.00;71.40
1429;DHT22;708;51.442;7.016;2023-05-24T07:55:59;27.40;69.00
1429;DHT22;708;51.442;7.016;2023-05-24T07:58:28;28.80;66.50
1429;DHT22;708;51.442;7.016;2023-05-24T08:00:56;28.70;63.20
1429;DHT22;708;51.442;7.016;2023-05-24T08:03:22;28.60;63.30
1429;DHT22;708;51.442;7.016;2023-05-24T08:05:50;28.90;60.90
1429;DHT22;708;51.442;7.016;2023-05-24T08:08:17;28.60;60.70
1429;DHT22;708;51.442;7.016;2023-05-24T08:10:44;27.80;59.60
1429;DHT22;708;51.442;7.016;2023-05-24T08:13:11;27.70;60.20
1429;DHT22;708;51.442;7.016;2023-05-24T08:15:39;26.70;62.10
1429;DHT22;708;51.442;7.016;2023-05-24T08:18:06;26.50;62.30
1429;DHT22;708;51.442;7.016;2023-05-24T08:20:33;26.30;63.00
1429;DHT22;708;51.442;7.016;2023-05-24T08:23:01;25.80;65.20
1429;DHT22;708;51.442;7.016;2023-05-24T08:25:28;25.30;64.90
1429;DHT22;708;51.442;7.016;2023-05-24T08:27:55;24.40;66.30
1429;DHT22;708;51.442;7.016;2023-05-24T08:30:22;23.50;66.30
1429;DHT22;708;51.442;7.016;2023-05-24T08:32:50;22.80;68.40
1429;DHT22;708;51.442;7.016;2023-05-24T08:35:17;22.00;67.10
1429;DHT22;708;51.442;7.016;2023-05-24T08:37:44;21.50;68.20
1429;DHT22;708;51.442;7.016;2023-05-24T08:40:12;21.00;69.80
1429;DHT22;708;51.442;7.016;2023-05-24T08:42:39;20.60;72.10
1429;DHT22;708;51.442;7.016;2023-05-24T08:45:10;20.20;74.20
1429;DHT22;708;51.442;7.016;2023-05-24T08:47:37;19.90;75.80
1429;DHT22;708;51.442;7.016;2023-05-24T08:50:06;19.60;77.90
1429;DHT22;708;51.442;7.016;2023-05-24T08:52:35;19.30;79.30
1429;DHT22;708;51.442;7.016;2023-05-24T08:55:03;19.10;81.40
1429;DHT22;708;51.442;7.016;2023-05-24T08:57:31;19.20;81.60
1429;DHT22;708;51.442;7.016;2023-05-24T08:59:59;19.80;81.00
1429;DHT22;708;51.442;7.016;2023-05-24T09:02:26;20.30;80.60
1429;DHT22;708;51.442;7.016;2023-05-24T09:04:53;20.90;79.70
1429;DHT22;708;51.442;7.016;2023-05-24T09:07:22;21.20;77.40
1429;DHT22;708;51.442;7.016;2023-05-24T09:09:55;21.10;77.60
1429;DHT22;708;51.442;7.016;2023-05-24T09:12:23;20.80;78.80
1429;DHT22;708;51.442;7.016;2023-05-24T09:14:57;20.60;79.20
1429;DHT22;708;51.442;7.016;2023-05-24T09:17:34;20.60;80.40
1429;DHT22;708;51.442;7.016;2023-05-24T09:20:07;20.70;79.70
1429;DHT22;708;51.442;7.016;2023-05-24T09:22:41;20.50;79.70
1429;DHT22;708;51.442;7.016;2023-05-24T09:25:09;20.70;78.90
1429;DHT22;708;51.442;7.016;2023-05-24T09:27:38;21.10;77.90
1429;DHT22;708;51.442;7.016;2023-05-24T09:30:08;21.70;75.10
1429;DHT22;708;51.442;7.016;2023-05-24T09:32:37;22.20;74.00
1429;DHT22;708;51.442;7.016;2023-05-24T09:35:07;23.40;72.70
1429;DHT22;708;51.442;7.016;2023-05-24T09:37:36;23.70;71.40
1429;DHT22;708;51.442;7.016;2023-05-24T09:40:05;23.40;70.70
1429;DHT22;708;51.442;7.016;2023-05-24T09:42:33;23.20;71.70
1429;DHT22;708;51.442;7.016;2023-05-24T09:45:00;23.20;71.30
1429;DHT22;708;51.442;7.016;2023-05-24T09:47:29;22.90;71.00
1429;DHT22;708;51.442;7.016;2023-05-24T09:49:56;22.40;71.20
1429;DHT22;708;51.442;7.016;2023-05-24T09:52:22;22.20;72.50
1429;DHT22;708;51.442;7.016;2023-05-24T09:54:51;21.90;72.50
1429;DHT22;708;51.442;7.016;2023-05-24T09:57:17;21.60;73.50
1429;DHT22;708;51.442;7.016;2023-05-24T09:59:46;21.30;74.10
1429;DHT22;708;51.442;7.016;2023-05-24T10:02:15;21.30;74.20
1429;DHT22;708;51.442;7.016;2023-05-24T10:04:43;21.20;74.60
1429;DHT22;708;51.442;7.016;2023-05-24T10:07:11;21.50;75.80
1429;DHT22;708;51.442;7.016;2023-05-24T10:09:38;21.80;73.20
1429;DHT22;708;51.442;7.016;2023-05-24T10:12:07;22.10;73.80
1429;DHT22;708;51.442;7.016;2023-05-24T10:14:35;22.20;70.50
1429;DHT22;708;51.442;7.016;2023-05-24T10:17:02;22.70;71.30
1429;DHT22;708;51.442;7.016;2023-05-24T10:19:29;23.00;69.70
1429;DHT22;708;51.442;7.016;2023-05-24T10:21:57;22.50;69.60
1429;DHT22;708;51.442;7.016;2023-05-24T10:24:31;22.10;71.10
1429;DHT22;708;51.442;7.016;2023-05-24T10:26:59;21.60;72.60
1429;DHT22;708;51.442;7.016;2023-05-24T10:29:35;21.50;72.30
1429;DHT22;708;51.442;7.016;2023-05-24T10:32:09;22.10;72.30
1429;DHT22;708;51.442;7.016;2023-05-24T10:34:37;21.40;71.10
1429;DHT22;708;51.442;7.016;2023-05-24T10:37:04;21.40;71.80
1429;DHT22;708;51.442;7.016;2023-05-24T10:39:32;20.40;73.00
1429;DHT22;708;51.442;7.016;2023-05-24T10:42:01;19.60;74.70
1429;DHT22;708;51.442;7.016;2023-05-24T10:44:30;18.90;77.30
1429;DHT22;708;51.442;7.016;2023-05-24T10:47:09;18.40;79.60
1429;DHT22;708;51.442;7.016;2023-05-24T10:49:38;17.80;81.90
1429;DHT22;708;51.442;7.016;2023-05-24T10:52:08;17.30;85.20
1429;DHT22;708;51.442;7.016;2023-05-24T10:54:35;16.90;89.10
1429;DHT22;708;51.442;7.016;2023-05-24T10:57:03;16.60;90.90
1429;DHT22;708;51.442;7.016;2023-05-24T10:59:35;16.60;92.20
1429;DHT22;708;51.442;7.016;2023-05-24T11:02:09;16.50;93.10
1429;DHT22;708;51.442;7.016;2023-05-24T11:04:41;16.40;93.80
1429;DHT22;708;51.442;7.016;2023-05-24T11:07:09;16.50;94.40
1429;DHT22;708;51.442;7.016;2023-05-24T11:09:37;16.80;94.40
1429;DHT22;708;51.442;7.016;2023-05-24T11:12:13;17.20;94.30
1429;DHT22;708;51.442;7.016;2023-05-24T11:14:47;17.20;93.60
1429;DHT22;708;51.442;7.016;2023-05-24T11:17:14;17.30;93.70
1429;DHT22;708;51.442;7.016;2023-05-24T11:19:45;17.50;93.30
1429;DHT22;708;51.442;7.016;2023-05-24T11:22:13;17.70;92.70
1429;DHT22;708;51.442;7.016;2023-05-24T11:24:41;17.50;92.80
1429;DHT22;708;51.442;7.016;2023-05-24T11:27:10;17.60;93.10
1429;DHT22;708;51.442;7.016;2023-05-24T11:29:43;17.70;93.10
1429;DHT22;708;51.442;7.016;2023-05-24T11:32:13;18.10;93.30
1429;DHT22;708;51.442;7.016;2023-05-24T11:34:40;18.30;91.90
1429;DHT22;708;51.442;7.016;2023-05-24T11:37:09;18.50;91.40
1429;DHT22;708;51.442;7.016;2023-05-24T11:39:37;18.80;91.20
1429;DHT22;708;51.442;7.016;2023-05-24T11:42:04;19.00;90.80
1429;DHT22;708;51.442;7.016;2023-05-24T11:44:32;19.20;90.40
1429;DHT22;708;51.442;7.016;2023-05-24T11:47:01;19.30;90.00
1429;DHT22;708;51.442;7.016;2023-05-24T11:49:28;19.10;90.00
1429;DHT22;708;51.442;7.016;2023-05-24T11:51:56;19.10;90.50
1429;DHT22;708;51.442;7.016;2023-05-24T11:54:23;19.30;90.50
1429;DHT22;708;51.442;7.016;2023-05-24T11:56:51;19.40;90.30
1429;DHT22;708;51.442;7.016;2023-05-24T11:59:22;19.70;90.30
1429;DHT22;708;51.442;7.016;2023-05-24T12:01:50;19.90;89.70
1429;DHT22;708;51.442;7.016;2023-05-24T12:04:23;19.80;88.40
1429;DHT22;708;51.442;7.016;2023-05-24T12:06:50;19.70;89.10
1429;DHT22;708;51.442;7.016;2023-05-24T12:09:17;19.20;88.50
1429;DHT22;708;51.442;7.016;2023-05-24T12:11:46;19.10;90.10
1429;DHT22;708;51.442;7.016;2023-05-24T12:14:15;19.00;90.50
1429;DHT22;708;51.442;7.016;2023-05-24T12:16:44;18.90;90.50
1429;DHT22;708;51.442;7.016;2023-05-24T12:19:17;18.60;90.90
1429;DHT22;708;51.442;7.016;2023-05-24T12:21:46;18.50;91.20
1429;DHT22;708;51.442;7.016;2023-05-24T12:24:14;18.30;91.50
1429;DHT22;708;51.442;7.016;2023-05-24T12:26:42;18.10;91.90
1429;DHT22;708;51.442;7.016;2023-05-24T12:29:10;17.90;92.40
1429;DHT22;708;51.442;7.016;2023-05-24T12:31:39;17.80;92.90
1429;DHT22;708;51.442;7.016;2023-05-24T12:34:06;17.60;93.50
1429;DHT22;708;51.442;7.016;2023-05-24T12:36:33;17.50;93.80
1429;DHT22;708;51.442;7.016;2023-05-24T12:39:16;17.40;94.50
1429;DHT22;708;51.442;7.016;2023-05-24T12:41:43;17.30;94.80
1429;DHT22;708;51.442;7.016;2023-05-24T12:44:10;17.50;95.30
1429;DHT22;708;51.442;7.016;2023-05-24T12:46:37;18.00;94.60
1429;DHT22;708;51.442;7.016;2023-05-24T12:49:04;18.40;93.90
1429;DHT22;708;51.442;7.016;2023-05-24T12:51:31;18.80;92.80
1429;DHT22;708;51.442;7.016;2023-05-24T12:53:58;19.30;91.90
1429;DHT22;708;51.442;7.016;2023-05-24T12:56:30;19.50;91.20
1429;DHT22;708;51.442;7.016;2023-05-24T12:58:57;19.70;90.90
1429;DHT22;708;51.442;7.016;2023-05-24T13:01:24;19.90;90.60
1429;DHT22;708;51.442;7.016;2023-05-24T13:03:52;19.80;90.30
1429;DHT22;708;51.442;7.016;2023-05-24T13:06:19;19.80;90.40
1429;DHT22;708;51.442;7.016;2023-05-24T13:08:46;20.00;90.30
1429;DHT22;708;51.442;7.016;2023-05-24T13:11:12;20.00;90.00
1429;DHT22;708;51.442;7.016;2023-05-24T13:13:41;19.80;90.10
1429;DHT22;708;51.442;7.016;2023-05-24T13:16:08;19.90;90.30
1429;DHT22;708;51.442;7.016;2023-05-24T13:18:36;19.80;90.40
1429;DHT22;708;51.442;7.016;2023-05-24T13:21:02;19.70;90.00
1429;DHT22;708;51.442;7.016;2023-05-24T13:23:30;19.50;90.30
1429;DHT22;708;51.442;7.016;2023-05-24T13:25:57;19.50;90.40
1429;DHT22;708;51.442;7.016;2023-05-24T13:28:28;19.90;90.40
1429;DHT22;708;51.442;7.016;2023-05-24T13:30:59;20.10;89.70
1429;DHT22;708;51.442;7.016;2023-05-24T13:33:26;20.00;89.90
1429;DHT22;708;51.442;7.016;2023-05-24T13:35:53;20.20;89.70
1429;DHT22;708;51.442;7.016;2023-05-24T13:38:22;20.50;89.60
1429;DHT22;708;51.442;7.016;2023-05-24T13:40:49;20.80;89.00
1429;DHT22;708;51.442;7.016;2023-05-24T13:43:18;21.00;88.50
1429;DHT22;708;51.442;7.016;2023-05-24T13:45:46;21.10;88.00
1429;DHT22;708;51.442;7.016;2023-05-24T13:48:14;21.00;88.00
1429;DHT22;708;51.442;7.016;2023-05-24T13:50:41;20.80;88.00
1429;DHT22;708;51.442;7.016;2023-05-24T13:53:08;20.50;88.20
1429;DHT22;708;51.442;7.016;2023-05-24T13:55:35;20.30;88.50
1429;DHT22;708;51.442;7.016;2023-05-24T13:58:03;20.20;89.60
1429;DHT22;708;51.442;7.016;2023-05-24T14:00:30;20.00;89.80
1429;DHT22;708;51.442;7.016;2023-05-24T14:02:57;19.90;90.00
1429;DHT22;708;51.442;7.016;2023-05-24T14:05:26;19.70;90.20
1429;DHT22;708;51.442;7.016;2023-05-24T14:07:54;19.50;90.70
1429;DHT22;708;51.442;7.016;2023-05-24T14:10:21;19.40;90.70
1429;DHT22;708;51.442;7.016;2023-05-24T14:12:49;19.40;90.90
1429;DHT22;708;51.442;7.016;2023-05-24T14:15:16;19.50;91.20
1429;DHT22;708;51.442;7.016;2023-05-24T14:17:43;19.40;91.20
1429;DHT22;708;51.442;7.016;2023-05-24T14:20:10;19.20;91.50
1429;DHT22;708;51.442;7.016;2023-05-24T14:22:39;19.00;92.10
1429;DHT22;708;51.442;7.016;2023-05-24T14:25:07;19.00;92.40
1429;DHT22;708;51.442;7.016;2023-05-24T14:27:34;18.70;92.30
1429;DHT22;708;51.442;7.016;2023-05-24T14:30:00;18.60;92.70
1429;DHT22;708;51.442;7.016;2023-05-24T14:32:27;18.40;93.00
1429;DHT22;708;51.442;7.016;2023-05-24T14:34:54;18.30;93.40
1429;DHT22;708;51.442;7.016;2023-05-24T14:37:21;18.30;93.80
1429;DHT22;708;51.442;7.016;2023-05-24T14:39:49;18.30;93.90
1429;DHT22;708;51.442;7.016;2023-05-24T14:42:15;18.20;94.30
1429;DHT22;708;51.442;7.016;2023-05-24T14:44:49;18.30;94.50
1429;DHT22;708;51.442;7.016;2023-05-24T14:47:23;18.30;94.40
1429;DHT22;708;51.442;7.016;2023-05-24T14:49:50;18.20;94.30
1429;DHT22;708;51.442;7.016;2023-05-24T14:52:16;18.20;94.50
1429;DHT22;708;51.442;7.016;2023-05-24T14:54:43;18.30;94.40
1429;DHT22;708;51.442;7.016;2023-05-24T14:57:11;18.30;94.40
1429;DHT22;708;51.442;7.016;2023-05-24T14:59:38;18.40;94.30
1429;DHT22;708;51.442;7.016;2023-05-24T15:02:05;18.50;94.70
1429;DHT22;708;51.442;7.016;2023-05-24T15:04:32;18.60;94.40
1429;DHT22;708;51.442;7.016;2023-05-24T15:07:01;18.70;94.60
1429;DHT22;708;51.442;7.016;2023-05-24T15:09:28;18.60;94.60
1429;DHT22;708;51.442;7.016;2023-05-24T15:11:55;18.50;95.20
1429;DHT22;708;51.442;7.016;2023-05-24T15:14:23;18.40;95.20
1429;DHT22;708;51.442;7.016;2023-05-24T15:16:50;18.30;95.30
1429;DHT22;708;51.442;7.016;2023-05-24T15:19:17;18.30;95.60
1429;DHT22;708;51.442;7.016;2023-05-24T15:21:43;18.00;96.00
1429;DHT22;708;51.442;7.016;2023-05-24T15:24:10;17.80;96.40
1429;DHT22;708;51.442;7.016;2023-05-24T15:26:38;17.70;97.20
1429;DHT22;708;51.442;7.016;2023-05-24T15:29:05;17.50;97.50
1429;DHT22;708;51.442;7.016;2023-05-24T15:31:33;17.50;98.00
1429;DHT22;708;51.442;7.016;2023-05-24T15:34:00;17.20;98.50
1429;DHT22;708;51.442;7.016;2023-05-24T15:36:29;17.20;99.40
1429;DHT22;708;51.442;7.016;2023-05-24T15:38:56;17.20;99.90
1429;DHT22;708;51.442;7.016;2023-05-24T15:41:23;17.50;99.80
1429;DHT22;708;51.442;7.016;2023-05-24T15:43:50;17.60;99.40
1429;DHT22;708;51.442;7.016;2023-05-24T15:46:19;17.60;99.00
1429;DHT22;708;51.442;7.016;2023-05-24T15:48:48;17.60;99.10
1429;DHT22;708;51.442;7.016;2023-05-24T15:51:15;17.50;99.40
1429;DHT22;708;51.442;7.016;2023-05-24T15:53:41;17.50;99.20
1429;DHT22;708;51.442;7.016;2023-05-24T15:56:08;17.40;99.20
1429;DHT22;708;51.442;7.016;2023-05-24T15:58:40;17.40;99.50
1429;DHT22;708;51.442;7.016;2023-05-24T16:01:08;17.50;99.70
1429;DHT22;708;51.442;7.016;2023-05-24T16:03:34;17.50;99.60
1429;DHT22;708;51.442;7.016;2023-05-24T16:06:03;17.50;99.60
1429;DHT22;708;51.442;7.016;2023-05-24T16:08:30;17.50;99.40
1429;DHT22;708;51.442;7.016;2023-05-24T16:10:57;17.50;99.80
1429;DHT22;708;51.442;7.016;2023-05-24T16:13:24;17.50;99.90
1429;DHT22;708;51.442;7.016;2023-05-24T16:15:51;17.50;99.90
1429;DHT22;708;51.442;7.016;2023-05-24T16:18:21;17.60;99.90
1429;DHT22;708;51.442;7.016;2023-05-24T16:20:48;17.80;99.90
1429;DHT22;708;51.442;7.016;2023-05-24T16:23:17;18.00;99.90
1429;DHT22;708;51.442;7.016;2023-05-24T16:25:44;18.30;99.60
1429;DHT22;708;51.442;7.016;2023-05-24T16:28:11;18.50;99.30
1429;DHT22;708;51.442;7.016;2023-05-24T16:30:38;18.50;99.00